Time;durP1;ratioP1;P1;durP2;ratioP2;P2;SDS_P1;SDS_P2;PMS_P1;PMS_P2;Temp;Humidity;BMP_temperature;BMP_pressure;BME280_temperature;BME280_humidity;BME280_pressure;Samples;Min_cycle;Max_cycle;Signal;HPM_P1;HPM_P2
2022/01/08 00:01:00;;;;;;;10.73;7.83;;;;;;;6.46;58.58;101936.84;2582335;23;20152;-70
2022/01/08 00:02:03;;;;;;;11.70;7.70;;;;;;;6.47;57.93;101932.91;2582336;23;20212;-70
2022/01/08 00:03:03;;;;;;;11.23;7.75;;;;;;;6.51;58.05;101933.78;2582538;23;20150;-70
2022/01/08 00:04:04;;;;;;;9.87;7.77;;;;;;;5.89;58.17;101840.09;2582286;23;20228;-70
2022/01/08 00:05:05;;;;;;;12.93;8.20;;;;;;;6.55;57.01;101934.63;2582334;23;20211;-70
2022/01/08 00:06:07;;;;;;;11.60;7.53;;;;;;;5.76;57.03;101814.75;2582325;23;20147;-70
2022/01/08 00:07:07;;;;;;;11.82;7.78;;;;;;;6.49;57.04;101932.56;2582711;23;20148;-70
2022/01/08 00:08:08;;;;;;;10.87;7.47;;;;;;;6.50;57.80;101928.63;2568491;23;20162;-70
2022/01/08 00:09:08;;;;;;;11.07;7.60;;;;;;;5.74;58.49;101830.03;2569340;23;20147;-70
2022/01/08 00:10:09;;;;;;;12.30;8.30;;;;;;;6.49;57.57;101930.59;2580403;23;20242;-70
2022/01/08 00:11:13;;;;;;;11.97;8.00;;;;;;;6.53;58.47;101942.47;2582655;23;20242;-70
2022/01/08 00:12:14;;;;;;;10.55;7.82;;;;;;;6.59;57.87;101935.47;2582160;23;20153;-70
2022/01/08 00:13:15;;;;;;;12.30;7.87;;;;;;;6.65;58.06;101927.66;2582775;23;20428;-70
2022/01/08 00:14:16;;;;;;;11.20;8.27;;;;;;;6.62;57.53;101920.16;2582071;23;20611;-70
2022/01/08 00:15:17;;;;;;;11.00;8.50;;;;;;;6.70;57.29;101935.59;2582537;23;20158;-70
2022/01/08 00:16:18;;;;;;;10.35;7.50;;;;;;;5.98;58.03;101819.41;2582154;23;20764;-70
2022/01/08 00:17:22;;;;;;;11.60;7.83;;;;;;;6.75;57.18;101929.75;2582270;23;20151;-70
2022/01/08 00:18:23;;;;;;;11.50;7.93;;;;;;;6.79;56.84;101927.84;2582210;23;20605;-70
2022/01/08 00:19:24;;;;;;;11.70;8.15;;;;;;;6.76;57.32;101929.38;2582484;23;20182;-70
2022/01/08 00:20:26;;;;;;;11.40;8.07;;;;;;;6.77;57.56;101941.97;2580668;23;20223;-70
2022/01/08 00:21:27;;;;;;;10.60;8.07;;;;;;;6.61;57.10;101900.06;2569188;23;20241;-70
2022/01/08 00:22:27;;;;;;;12.27;7.90;;;;;;;6.75;56.87;101929.75;2568756;23;20210;-70
2022/01/08 00:23:28;;;;;;;10.53;8.03;;;;;;;6.05;57.72;101821.47;2582292;23;20474;-70
2022/01/08 00:24:28;;;;;;;11.80;7.93;;;;;;;6.29;57.99;101878.78;2581991;23;20244;-70
2022/01/08 00:25:29;;;;;;;12.37;8.53;;;;;;;6.42;56.96;101872.66;2582588;23;20154;-70
2022/01/08 00:26:30;;;;;;;11.83;7.80;;;;;;;6.73;57.98;101935.66;2582201;23;20568;-70
2022/01/08 00:27:30;;;;;;;12.97;8.60;;;;;;;6.75;59.17;101940.75;2582041;23;20233;-70
2022/01/08 00:28:31;;;;;;;10.40;7.70;;;;;;;6.67;56.92;101934.38;2582109;23;20644;-70
2022/01/08 00:29:31;;;;;;;13.97;8.07;;;;;;;6.51;57.10;101913.72;2582417;23;20161;-70
2022/01/08 00:30:32;;;;;;;11.27;8.27;;;;;;;6.64;57.66;101929.63;2567176;23;20567;-70
2022/01/08 00:31:32;;;;;;;11.37;7.87;;;;;;;6.62;58.18;101931.94;2569006;23;20152;-70
2022/01/08 00:32:33;;;;;;;11.73;7.87;;;;;;;6.35;57.55;101904.84;2582096;23;20659;-70
2022/01/08 00:33:34;;;;;;;10.37;7.77;;;;;;;6.52;56.48;101929.84;2582468;23;20641;-70
2022/01/08 00:34:34;;;;;;;12.33;8.20;;;;;;;6.52;57.91;101926.31;2581870;23;20159;-70
2022/01/08 00:35:35;;;;;;;11.67;8.57;;;;;;;6.54;57.55;101934.97;2582425;23;20161;-70
2022/01/08 00:36:35;;;;;;;12.50;8.57;;;;;;;6.56;57.59;101925.19;2582084;23;20206;-70
2022/01/08 00:37:39;;;;;;;11.63;8.30;;;;;;;6.28;58.67;101869.75;2582228;23;20154;-70
2022/01/08 00:38:40;;;;;;;12.68;7.68;;;;;;;5.83;59.14;101812.13;2581970;23;20213;-70
2022/01/08 00:39:40;;;;;;;12.77;8.23;;;;;;;6.17;57.77;101849.56;2582130;23;20212;-70
2022/01/08 00:40:41;;;;;;;13.83;8.93;;;;;;;6.65;58.20;101924.91;2581381;23;20150;-70
2022/01/08 00:41:41;;;;;;;12.90;8.40;;;;;;;6.28;56.96;101869.75;2582500;23;20156;-70
2022/01/08 00:42:42;;;;;;;11.30;8.20;;;;;;;6.71;57.46;101923.41;2582122;23;20499;-70
2022/01/08 00:43:42;;;;;;;12.37;8.27;;;;;;;6.15;57.69;101829.84;2582385;23;20375;-70
2022/01/08 00:44:43;;;;;;;11.23;8.20;;;;;;;6.69;58.26;101920.22;2582037;23;20154;-70
2022/01/08 00:45:43;;;;;;;12.07;8.30;;;;;;;6.69;57.69;101920.22;2582429;23;20178;-70
2022/01/08 00:46:44;;;;;;;12.00;8.07;;;;;;;6.66;56.92;101921.00;2581983;23;20147;-70
2022/01/08 00:47:44;;;;;;;12.40;8.20;;;;;;;6.03;56.91;101827.34;2582112;23;20150;-70
2022/01/08 00:48:45;;;;;;;12.10;8.53;;;;;;;6.15;57.14;101873.09;2582344;23;20234;-70
2022/01/08 00:49:45;;;;;;;12.50;8.43;;;;;;;6.48;57.86;101915.25;2581794;23;20237;-70
2022/01/08 00:50:46;;;;;;;12.87;8.43;;;;;;;6.34;57.84;101922.50;2581252;23;20547;-70
2022/01/08 00:51:46;;;;;;;10.77;7.53;;;;;;;6.28;57.64;101922.06;2582482;23;20543;-70
2022/01/08 00:52:47;;;;;;;12.00;8.43;;;;;;;6.25;57.71;101930.28;2582079;23;20585;-70
2022/01/08 00:53:47;;;;;;;12.83;8.20;;;;;;;5.46;58.23;101808.38;2582357;23;20159;-70
2022/01/08 00:54:48;;;;;;;13.30;8.50;;;;;;;5.28;58.28;101809.28;2581885;23;20147;-70
2022/01/08 00:55:48;;;;;;;12.23;8.43;;;;;;;5.88;59.24;101924.59;2582254;23;20162;-70
2022/01/08 00:56:50;;;;;;;13.60;8.67;;;;;;;5.95;59.79;101927.44;2582211;23;20182;-70
2022/01/08 00:57:50;;;;;;;12.27;8.82;;;;;;;5.94;59.31;101920.34;2581771;23;20154;-70
2022/01/08 00:58:51;;;;;;;12.57;8.73;;;;;;;5.50;59.92;101842.25;2582080;23;20148;-70
2022/01/08 00:59:51;;;;;;;13.80;9.13;;;;;;;6.06;58.99;101927.63;2581407;23;20166;-70
2022/01/08 01:00:52;;;;;;;12.43;8.60;;;;;;;6.11;59.50;101919.81;2581420;23;20151;-70
2022/01/08 01:01:52;;;;;;;15.40;8.83;;;;;;;6.06;58.75;101917.38;2568788;23;20159;-70
2022/01/08 01:02:53;;;;;;;12.90;8.90;;;;;;;5.51;60.10;101804.53;2569027;23;20154;-70
2022/01/08 01:03:54;;;;;;;11.98;8.20;;;;;;;5.96;59.67;101873.22;2582191;23;20154;-70
2022/01/08 01:04:54;;;;;;;11.60;8.07;;;;;;;6.26;59.88;101902.34;2582014;23;20154;-70
2022/01/08 01:05:55;;;;;;;12.40;8.53;;;;;;;6.18;59.15;101911.69;2582199;23;20161;-70
2022/01/08 01:06:55;;;;;;;12.73;8.73;;;;;;;4.65;58.57;101695.56;2568868;23;20689;-70
2022/01/08 01:07:56;;;;;;;13.43;8.90;;;;;;;5.91;59.71;101881.78;2568571;23;20155;-70
2022/01/08 01:08:56;;;;;;;10.93;8.67;;;;;;;5.65;59.63;101829.50;2582252;23;20166;-70
2022/01/08 01:09:57;;;;;;;12.73;8.50;;;;;;;5.75;60.17;101845.38;2567574;23;20163;-70
2022/01/08 01:10:57;;;;;;;14.47;8.30;;;;;;;6.28;59.56;101896.47;2568637;23;20201;-70
2022/01/08 01:11:58;;;;;;;12.33;8.70;;;;;;;5.93;59.69;101833.47;2582030;23;20157;-70
2022/01/08 01:12:58;;;;;;;13.53;8.57;;;;;;;6.39;59.16;101895.47;2568973;23;20605;-70
2022/01/08 01:13:59;;;;;;;11.13;8.33;;;;;;;6.01;58.81;101823.38;2568823;23;20370;-70
2022/01/08 01:14:59;;;;;;;15.87;9.13;;;;;;;6.38;58.04;101893.06;2582065;23;20159;-70
2022/01/08 01:16:02;;;;;;;12.43;8.40;;;;;;;6.10;58.66;101849.44;2581857;23;20163;-70
2022/01/08 01:17:03;;;;;;;13.68;8.70;;;;;;;6.19;58.53;101866.47;2582375;23;20181;-70
2022/01/08 01:18:04;;;;;;;12.67;8.67;;;;;;;5.99;58.96;101828.44;2581655;23;20670;-70
2022/01/08 01:19:04;;;;;;;15.37;8.57;;;;;;;6.48;58.82;101895.97;2582330;23;20547;-70
2022/01/08 01:20:07;;;;;;;13.40;8.43;;;;;;;6.53;58.97;101890.16;2580362;23;20409;-70
2022/01/08 01:21:07;;;;;;;12.73;8.68;;;;;;;6.05;59.00;101818.72;2582087;23;20160;-70
2022/01/08 01:22:08;;;;;;;13.80;8.60;;;;;;;6.49;58.17;101870.03;2582042;23;20190;-70
2022/01/08 01:23:13;;;;;;;13.63;8.90;;;;;;;6.48;58.66;101895.19;2582308;23;20556;-70
2022/01/08 01:24:18;;;;;;;12.45;8.32;;;;;;;5.91;57.85;101811.06;2568238;23;20164;-70
2022/01/08 01:25:25;;;;;;;13.88;8.95;;;;;;;6.41;59.15;101887.59;2570083;23;20131;-70
2022/01/08 01:26:28;;;;;;;15.05;8.88;;;;;;;5.74;59.20;101764.03;2568598;23;20141;-70
2022/01/08 01:27:54;;;;;;;17.52;9.88;;;;;;;5.89;58.79;101796.09;2569498;23;20174;-70
2022/01/08 01:29:01;;;;;;;13.10;9.30;;;;;;;5.83;58.16;101789.31;2581943;23;20163;-70
2022/01/08 01:30:13;;;;;;;15.07;8.85;;;;;;;6.31;59.07;101880.00;2580109;23;20139;-70
2022/01/08 01:41:40;;;;;;;16.25;9.90;;;;;;;6.05;60.29;101855.25;2582421;23;20492;-70
2022/01/08 01:47:48;;;;;;;15.77;10.13;;;;;;;5.75;60.61;101826.13;2581998;23;20136;-70
2022/01/08 01:48:48;;;;;;;18.43;10.63;;;;;;;5.93;60.39;101844.50;2582079;23;20148;-70
2022/01/08 01:49:49;;;;;;;19.00;10.90;;;;;;;5.93;60.10;101841.75;2581437;23;20148;-70
2022/01/08 01:50:49;;;;;;;15.63;10.50;;;;;;;5.92;60.02;101842.91;2581189;23;20159;-70
2022/01/08 01:51:50;;;;;;;16.17;10.77;;;;;;;5.95;60.03;101842.16;2582126;23;20159;-70
2022/01/08 01:52:51;;;;;;;17.10;10.70;;;;;;;5.82;59.98;101840.78;2582017;23;20171;-70
2022/01/08 01:53:51;;;;;;;16.63;10.50;;;;;;;5.77;60.23;101843.03;2582004;23;20615;-70
2022/01/08 01:54:52;;;;;;;16.43;10.70;;;;;;;5.68;60.97;101834.25;2581840;23;20201;-70
2022/01/08 01:55:52;;;;;;;15.03;10.63;;;;;;;4.37;60.52;101624.50;2581937;23;20179;-70
2022/01/08 01:56:54;;;;;;;17.10;10.80;;;;;;;5.77;60.32;101845.78;2581954;23;20597;-70
2022/01/08 01:57:56;;;;;;;17.98;11.07;;;;;;;4.84;60.52;101699.03;2581675;23;20152;-70
2022/01/08 01:58:57;;;;;;;21.00;11.90;;;;;;;5.73;61.40;101840.22;2581861;23;20148;-70
2022/01/08 01:59:58;;;;;;;16.58;11.23;;;;;;;5.72;60.63;101840.59;2567163;23;20161;-70
2022/01/08 02:01:01;;;;;;;18.13;10.82;;;;;;;4.88;61.30;101729.31;2568599;23;20231;-70
2022/01/08 02:02:04;;;;;;;16.85;11.20;;;;;;;5.57;61.55;101836.03;2581886;23;20159;-70
2022/01/08 02:03:05;;;;;;;17.85;11.25;;;;;;;5.56;60.36;101824.25;2582047;23;20158;-70
2022/01/08 02:04:05;;;;;;;19.53;11.53;;;;;;;5.65;61.12;101841.28;2581546;23;20158;-70
2022/01/08 02:05:07;;;;;;;17.70;11.53;;;;;;;5.04;61.72;101758.25;2582043;23;20148;-70
2022/01/08 02:06:08;;;;;;;17.70;11.35;;;;;;;5.61;61.45;101840.44;2581889;23;20152;-70
2022/01/08 02:07:09;;;;;;;17.63;11.38;;;;;;;5.61;61.13;101837.69;2582214;23;20152;-70
2022/01/08 02:08:12;;;;;;;17.63;11.20;;;;;;;5.53;61.09;101827.75;2581664;23;20159;-70
2022/01/08 02:09:13;;;;;;;17.80;11.90;;;;;;;5.52;61.35;101830.84;2582320;23;20151;-70
2022/01/08 02:10:13;;;;;;;18.33;10.97;;;;;;;5.12;61.20;101759.16;2580075;23;20696;-70
2022/01/08 02:11:17;;;;;;;15.57;11.33;;;;;;;5.40;61.42;101825.56;2582230;23;20140;-70
2022/01/08 02:12:20;;;;;;;18.75;11.57;;;;;;;5.42;61.84;101829.53;2581812;23;20506;-70
2022/01/08 02:13:25;;;;;;;17.52;11.52;;;;;;;5.40;61.63;101829.13;2582205;23;20683;-70
2022/01/08 02:14:28;;;;;;;17.80;11.10;;;;;;;5.47;61.69;101829.22;2581786;23;20139;-70
2022/01/08 02:15:28;;;;;;;18.27;11.82;;;;;;;5.46;61.70;101821.34;2568874;23;20236;-70
2022/01/08 02:16:29;;;;;;;17.53;11.40;;;;;;;4.71;62.24;101697.63;2568350;23;20302;-70
2022/01/08 02:17:29;;;;;;;19.70;11.77;;;;;;;5.46;61.85;101818.59;2568774;23;20168;-70
2022/01/08 02:18:30;;;;;;;18.23;11.70;;;;;;;4.67;61.51;101707.00;2581926;23;20160;-70
2022/01/08 02:19:31;;;;;;;17.73;11.37;;;;;;;5.35;61.62;101810.19;2582275;23;20147;-70
2022/01/08 02:20:32;;;;;;;18.67;11.83;;;;;;;4.78;61.56;101735.41;2580403;23;20183;-70
2022/01/08 02:21:32;;;;;;;16.30;11.32;;;;;;;4.67;62.06;101709.72;2582220;23;20620;-70
2022/01/08 02:22:33;;;;;;;16.73;11.83;;;;;;;4.92;62.06;101738.41;2581916;23;20199;-70
2022/01/08 02:23:33;;;;;;;19.60;12.17;;;;;;;5.53;62.13;101808.50;2568807;23;20183;-70
2022/01/08 02:24:34;;;;;;;17.33;12.47;;;;;;;5.53;61.69;101815.97;2568365;23;20534;-70
2022/01/08 02:25:34;;;;;;;16.83;11.17;;;;;;;5.55;62.16;101813.63;2582171;23;20155;-70
2022/01/08 02:26:35;;;;;;;17.10;11.13;;;;;;;5.44;61.73;101805.19;2581991;23;20151;-70
2022/01/08 02:27:35;;;;;;;19.20;11.80;;;;;;;5.46;62.04;101794.66;2581832;23;20161;-70
2022/01/08 02:28:38;;;;;;;19.07;11.63;;;;;;;5.31;61.42;101765.34;2582002;23;20498;-70
2022/01/08 02:29:38;;;;;;;17.90;11.32;;;;;;;4.06;61.36;101553.41;2582289;23;20645;-70
2022/01/08 02:30:39;;;;;;;16.17;10.93;;;;;;;5.13;61.50;101709.31;2579797;23;20480;-70
2022/01/08 02:31:40;;;;;;;15.20;10.93;;;;;;;5.72;61.33;101800.16;2582099;23;20155;-70
2022/01/08 02:32:41;;;;;;;17.77;11.40;;;;;;;5.08;61.01;101682.16;2568420;23;20160;-70
2022/01/08 02:33:42;;;;;;;16.98;11.80;;;;;;;5.90;60.78;101803.19;2568928;23;20157;-70
2022/01/08 02:34:44;;;;;;;18.73;12.33;;;;;;;5.91;60.58;101807.50;2581482;23;20148;-70
2022/01/08 02:35:45;;;;;;;17.45;11.32;;;;;;;5.51;60.09;101772.34;2581516;23;20159;-70
2022/01/08 02:36:45;;;;;;;18.90;11.63;;;;;;;5.47;61.41;101762.44;2581036;23;20261;-70
2022/01/08 02:37:46;;;;;;;16.87;11.93;;;;;;;5.85;61.65;101812.53;2581502;23;20160;-70
2022/01/08 02:38:47;;;;;;;17.30;11.33;;;;;;;5.19;61.83;101693.31;2568445;23;20236;-70
2022/01/08 02:39:49;;;;;;;16.95;11.70;;;;;;;6.00;61.71;101810.78;2568248;23;20222;-70
2022/01/08 02:41:03;;;;;;;16.83;11.52;;;;;;;6.07;60.71;101810.88;2581105;23;20364;-70
2022/01/08 02:42:04;;;;;;;17.65;11.30;;;;;;;5.87;59.96;101787.41;2581878;23;20191;-70
2022/01/08 02:43:06;;;;;;;17.67;11.40;;;;;;;5.94;60.19;101801.28;2582167;23;20281;-70
2022/01/08 02:44:07;;;;;;;15.82;10.95;;;;;;;5.83;60.04;101805.81;2581959;23;20152;-70
2022/01/08 02:45:08;;;;;;;18.92;11.85;;;;;;;5.72;60.24;101789.13;2582141;23;20148;-70
2022/01/08 02:46:09;;;;;;;16.70;11.17;;;;;;;5.56;60.59;101788.50;2581802;23;20194;-70
2022/01/08 02:47:12;;;;;;;19.83;12.27;;;;;;;5.81;60.67;101797.16;2582061;23;20574;-70
2022/01/08 02:48:13;;;;;;;20.33;11.30;;;;;;;5.81;61.40;101788.91;2581634;23;20148;-70
2022/01/08 02:49:13;;;;;;;15.97;11.07;;;;;;;5.93;60.47;101800.47;2582270;23;20148;-70
2022/01/08 02:50:15;;;;;;;15.93;11.57;;;;;;;5.70;60.75;101752.16;2566765;23;20587;-70
2022/01/08 02:51:16;;;;;;;16.00;10.82;;;;;;;5.91;60.41;101799.25;2569259;23;20234;-70
2022/01/08 02:52:16;;;;;;;16.97;11.43;;;;;;;5.30;61.69;101721.75;2582500;23;20153;-70
2022/01/08 02:53:17;;;;;;;16.80;11.30;;;;;;;5.28;60.91;101713.09;2582780;23;20148;-70
2022/01/08 02:54:17;;;;;;;17.27;11.03;;;;;;;5.74;60.67;101784.06;2582538;23;20472;-70
2022/01/08 02:55:20;;;;;;;16.20;11.13;;;;;;;5.89;60.24;101801.59;2582769;23;20154;-70
2022/01/08 02:56:20;;;;;;;17.05;11.13;;;;;;;5.91;60.71;101793.75;2582463;23;20633;-70
2022/01/08 02:57:21;;;;;;;18.13;12.23;;;;;;;5.82;60.65;101793.22;2582704;23;20482;-70
2022/01/08 02:58:25;;;;;;;17.30;11.10;;;;;;;5.90;61.22;101792.94;2569129;23;20622;-70
2022/01/08 02:59:26;;;;;;;19.50;10.80;;;;;;;6.00;61.58;101791.53;2570279;23;20155;-70
2022/01/08 03:00:27;;;;;;;18.60;11.93;;;;;;;5.32;60.15;101691.91;2580817;23;20162;-70
2022/01/08 03:01:27;;;;;;;17.00;11.83;;;;;;;5.77;60.96;101785.25;2582922;23;20147;-70
2022/01/08 03:02:28;;;;;;;15.83;11.30;;;;;;;5.75;61.06;101787.59;2569246;23;20255;-70
2022/01/08 03:03:28;;;;;;;15.90;11.03;;;;;;;5.67;61.67;101766.66;2569361;23;20148;-70
2022/01/08 03:04:29;;;;;;;19.33;11.50;;;;;;;5.84;61.89;101786.19;2582380;23;20155;-70
2022/01/08 03:05:29;;;;;;;17.50;11.43;;;;;;;5.90;61.58;101781.16;2582983;23;20519;-70
2022/01/08 03:06:30;;;;;;;15.30;10.70;;;;;;;5.95;61.28;101781.63;2582475;23;20200;-70
2022/01/08 03:07:31;;;;;;;17.07;11.60;;;;;;;5.95;61.09;101778.09;2581635;23;20648;-70
2022/01/08 03:08:31;;;;;;;15.57;10.73;;;;;;;5.86;59.93;101774.81;2581830;23;20161;-70
2022/01/08 03:09:37;;;;;;;14.73;10.93;;;;;;;5.42;60.32;101744.31;2582802;23;20156;-70
2022/01/08 03:10:37;;;;;;;18.77;11.68;;;;;;;5.82;61.18;101777.53;2580681;23;20191;-70
2022/01/08 03:11:42;;;;;;;17.27;10.73;;;;;;;5.42;61.48;101708.56;2582947;23;20159;-70
2022/01/08 03:12:44;;;;;;;16.83;10.63;;;;;;;6.02;61.87;101778.97;2582396;23;20512;-70
2022/01/08 03:13:44;;;;;;;17.77;11.25;;;;;;;6.04;60.57;101786.84;2582811;23;20624;-70
2022/01/08 03:14:45;;;;;;;15.10;10.50;;;;;;;6.11;60.72;101773.19;2582238;23;20553;-70
2022/01/08 03:15:45;;;;;;;15.73;10.57;;;;;;;5.16;60.96;101625.34;2582822;23;20157;-70
2022/01/08 03:16:46;;;;;;;13.10;10.03;;;;;;;5.56;59.27;101684.03;2582387;23;20665;-70
2022/01/08 03:17:47;;;;;;;16.87;10.23;;;;;;;6.18;59.13;101774.06;2582721;23;20148;-70
2022/01/08 03:18:49;;;;;;;15.93;10.05;;;;;;;5.98;61.17;101772.63;2569100;23;20153;-70
2022/01/08 03:19:53;;;;;;;19.25;10.95;;;;;;;6.02;59.99;101783.69;2568769;23;20175;-70
2022/01/08 03:21:02;;;;;;;15.73;11.27;;;;;;;6.02;60.75;101784.47;2582141;23;20156;-70
2022/01/08 03:22:04;;;;;;;15.00;9.88;;;;;;;5.44;60.43;101691.72;2582428;23;20140;-70
2022/01/08 03:23:13;;;;;;;14.23;10.05;;;;;;;5.10;60.23;101643.31;2582655;23;20498;-70
2022/01/08 03:24:16;;;;;;;15.60;10.45;;;;;;;6.16;60.56;101781.88;2582241;23;20493;-70
2022/01/08 03:25:17;;;;;;;16.52;10.23;;;;;;;5.80;59.68;101724.81;2582783;23;20144;-70
2022/01/08 03:26:20;;;;;;;15.57;10.60;;;;;;;6.24;60.33;101780.81;2569165;23;20172;-70
2022/01/08 03:27:20;;;;;;;13.00;10.23;;;;;;;6.31;59.83;101788.38;2569633;23;20223;-70
2022/01/08 03:28:21;;;;;;;16.03;10.23;;;;;;;6.34;59.76;101785.66;2582606;23;20147;-70
2022/01/08 03:29:22;;;;;;;14.73;10.07;;;;;;;6.24;59.48;101793.78;2582780;23;20147;-70
2022/01/08 03:30:24;;;;;;;14.97;10.30;;;;;;;6.24;59.71;101783.56;2580765;23;20152;-70
2022/01/08 03:31:26;;;;;;;13.75;9.65;;;;;;;6.33;59.62;101781.31;2582736;23;20152;-70
2022/01/08 03:32:26;;;;;;;14.07;10.00;;;;;;;6.26;60.39;101772.19;2582269;23;20146;-70
2022/01/08 03:33:27;;;;;;;15.40;9.50;;;;;;;6.21;59.00;101789.81;2582842;23;20233;-70
2022/01/08 03:34:28;;;;;;;15.00;9.67;;;;;;;5.61;59.81;101683.69;2582036;23;20437;-70
2022/01/08 03:35:28;;;;;;;11.77;8.90;;;;;;;5.93;60.13;101717.94;2582667;23;20158;-70
2022/01/08 03:36:29;;;;;;;14.47;9.83;;;;;;;6.35;60.22;101778.97;2582310;23;20206;-70
2022/01/08 03:37:29;;;;;;;14.30;9.73;;;;;;;6.08;60.33;101727.13;2582464;23;20228;-70
2022/01/08 03:38:30;;;;;;;18.73;10.47;;;;;;;6.26;59.16;101741.91;2582354;23;20163;-70
2022/01/08 03:39:30;;;;;;;12.83;9.10;;;;;;;6.45;58.68;101778.31;2582731;23;20249;-70
2022/01/08 03:40:31;;;;;;;12.50;8.67;;;;;;;6.04;58.48;101707.84;2580860;23;20159;-70
2022/01/08 03:41:31;;;;;;;12.77;9.63;;;;;;;6.45;58.30;101772.78;2583046;23;20151;-70
2022/01/08 03:42:32;;;;;;;13.83;9.50;;;;;;;6.49;58.60;101776.38;2582422;23;20307;-70
2022/01/08 03:43:33;;;;;;;13.87;9.93;;;;;;;6.35;58.99;101759.69;2582731;23;20214;-70
2022/01/08 03:44:33;;;;;;;13.23;9.13;;;;;;;6.35;58.45;101770.72;2582228;23;20151;-70
2022/01/08 03:45:34;;;;;;;12.77;9.07;;;;;;;6.26;57.93;101758.44;2582656;23;20612;-70
2022/01/08 03:46:35;;;;;;;13.37;9.10;;;;;;;6.37;58.82;101767.59;2582357;23;20147;-70
2022/01/08 03:50:02;;;;;;;13.25;8.57;;;;;;;6.25;58.21;101763.13;2580888;23;20228;-70
2022/01/08 03:51:03;;;;;;;14.83;9.20;;;;;;;6.27;58.63;101769.06;2582689;23;20166;-70
2022/01/08 03:52:03;;;;;;;10.40;8.33;;;;;;;6.23;58.42;101764.66;2582453;23;20154;-70
2022/01/08 03:53:04;;;;;;;13.13;8.80;;;;;;;6.22;59.03;101771.34;2582550;23;20154;-70
2022/01/08 03:54:04;;;;;;;11.77;8.60;;;;;;;6.09;59.39;101734.22;2582324;23;20155;-70
2022/01/08 03:55:05;;;;;;;12.83;8.80;;;;;;;6.35;59.06;101770.72;2582436;23;20226;-70
2022/01/08 03:56:06;;;;;;;13.10;8.23;;;;;;;6.41;58.62;101765.69;2582202;23;20155;-70
2022/01/08 03:57:07;;;;;;;12.20;8.57;;;;;;;6.39;58.67;101777.06;2569418;23;20160;-70
2022/01/08 03:58:08;;;;;;;10.60;8.03;;;;;;;5.91;58.23;101692.75;2568821;23;20159;-70
2022/01/08 03:59:08;;;;;;;12.40;8.77;;;;;;;5.90;58.02;101696.66;2582524;23;20386;-70
2022/01/08 04:00:09;;;;;;;11.93;8.50;;;;;;;6.35;58.02;101770.72;2580820;23;20150;-70
2022/01/08 04:01:09;;;;;;;10.10;7.97;;;;;;;6.34;58.64;101760.88;2582572;23;20604;-70
2022/01/08 04:02:10;;;;;;;10.67;8.47;;;;;;;6.16;57.78;101748.09;2581254;23;20612;-70
2022/01/08 04:03:11;;;;;;;10.33;7.90;;;;;;;6.09;58.35;101767.25;2569398;23;20163;-70
2022/01/08 04:04:11;;;;;;;10.23;7.80;;;;;;;5.93;59.28;101767.44;2568837;23;20286;-70
2022/01/08 04:05:12;;;;;;;10.90;8.13;;;;;;;5.82;58.15;101751.97;2582380;23;20154;-70
2022/01/08 04:06:12;;;;;;;13.67;8.90;;;;;;;5.66;58.85;101746.63;2582206;23;20511;-70
2022/01/08 04:07:13;;;;;;;11.10;8.23;;;;;;;4.67;59.05;101588.94;2582453;23;20186;-70
2022/01/08 04:08:14;;;;;;;9.90;7.67;;;;;;;5.77;59.18;101768.75;2582211;23;20222;-70
2022/01/08 04:09:16;;;;;;;10.60;8.23;;;;;;;5.79;59.22;101769.97;2582715;23;20146;-70
2022/01/08 04:10:16;;;;;;;9.82;7.43;;;;;;;5.15;60.03;101673.22;2580351;23;20147;-70
2022/01/08 04:11:17;;;;;;;10.70;8.23;;;;;;;5.83;59.38;101757.09;2569196;23;20231;-70
2022/01/08 04:12:28;;;;;;;9.37;7.90;;;;;;;5.47;59.90;101682.69;2568957;23;20151;-70
2022/01/08 04:13:32;;;;;;;9.20;7.32;;;;;;;5.26;59.85;101665.91;2582864;23;20594;-70
2022/01/08 04:14:48;;;;;;;12.13;7.82;;;;;;;5.22;58.47;101648.56;2582074;23;20597;-70
2022/01/08 04:15:51;;;;;;;10.75;7.43;;;;;;;5.30;58.47;101656.56;2582662;23;20143;-70
2022/01/08 04:16:53;;;;;;;11.25;7.43;;;;;;;5.11;58.82;101647.63;2582303;23;20176;-70
2022/01/08 04:17:54;;;;;;;12.05;7.32;;;;;;;5.31;59.18;101706.81;2568703;23;20182;-70
2022/01/08 04:18:56;;;;;;;10.82;7.82;;;;;;;5.03;59.26;101667.94;2569094;23;20186;-70
2022/01/08 04:19:56;;;;;;;11.70;7.78;;;;;;;5.69;59.86;101764.34;2580836;23;20221;-70
2022/01/08 04:22:12;;;;;;;10.02;7.60;;;;;;;5.39;60.06;101678.28;2582366;23;20532;-70
2022/01/08 04:23:14;;;;;;;9.02;7.28;;;;;;;5.99;59.54;101756.88;2582633;23;20135;-70
2022/01/08 04:24:14;;;;;;;9.90;7.28;;;;;;;5.20;58.74;101624.25;2581911;23;20202;-70
2022/01/08 04:25:21;;;;;;;9.50;7.27;;;;;;;5.75;59.12;101727.88;2582668;23;20151;-70
2022/01/08 04:26:23;;;;;;;9.02;7.32;;;;;;;5.86;58.79;101756.38;2581367;23;20605;-70
2022/01/08 04:27:23;;;;;;;9.20;7.00;;;;;;;5.84;58.47;101749.66;2581539;23;20147;-70
2022/01/08 04:28:24;;;;;;;8.70;7.03;;;;;;;5.28;59.45;101661.63;2582169;23;20149;-70
2022/01/08 04:29:25;;;;;;;9.57;7.20;;;;;;;5.97;59.73;101750.97;2582708;23;20178;-70
2022/01/08 04:30:25;;;;;;;8.97;7.40;;;;;;;5.86;59.14;101734.34;2567149;23;20696;-70
2022/01/08 04:31:26;;;;;;;11.20;7.90;;;;;;;6.07;59.01;101747.56;2569030;23;20150;-70
2022/01/08 04:32:26;;;;;;;10.97;7.60;;;;;;;6.09;59.49;101753.47;2582081;23;20198;-70
2022/01/08 04:33:27;;;;;;;10.67;7.60;;;;;;;5.18;58.57;101623.03;2581598;23;20536;-70
2022/01/08 04:34:27;;;;;;;10.17;7.20;;;;;;;6.03;58.43;101747.53;2581170;23;20157;-70
2022/01/08 04:35:28;;;;;;;10.10;7.43;;;;;;;5.98;59.03;101747.06;2582182;23;20154;-70
2022/01/08 04:36:28;;;;;;;10.53;7.53;;;;;;;5.62;58.68;101745.78;2582146;23;20185;-70
2022/01/08 04:37:29;;;;;;;11.10;7.80;;;;;;;5.89;59.09;101760.31;2582289;23;20659;-70
2022/01/08 04:38:32;;;;;;;8.65;7.20;;;;;;;5.42;59.56;101674.78;2582095;23;20706;-70
2022/01/08 04:39:32;;;;;;;9.70;7.22;;;;;;;5.79;59.25;101723.22;2582459;23;20154;-70
2022/01/08 04:40:33;;;;;;;9.27;7.47;;;;;;;5.93;59.01;101750.94;2580579;23;20230;-70
2022/01/08 04:41:33;;;;;;;9.87;7.33;;;;;;;5.87;58.82;101754.38;2582565;23;20155;-70
2022/01/08 04:42:34;;;;;;;10.57;7.30;;;;;;;5.81;58.26;101744.88;2568749;23;20163;-70
2022/01/08 04:43:37;;;;;;;8.40;6.90;;;;;;;5.77;58.86;101752.25;2569168;23;20156;-70
2022/01/08 04:44:37;;;;;;;10.52;7.25;;;;;;;5.69;59.35;101765.13;2582093;23;20158;-70
2022/01/08 04:45:38;;;;;;;9.33;7.07;;;;;;;5.47;60.08;101718.44;2569118;23;20161;-70
2022/01/08 04:46:40;;;;;;;8.93;7.10;;;;;;;5.08;59.42;101671.16;2568768;23;20147;-70
2022/01/08 04:47:41;;;;;;;12.45;7.80;;;;;;;5.70;59.44;101736.44;2581353;23;20158;-70
2022/01/08 04:48:42;;;;;;;10.13;7.50;;;;;;;5.69;59.71;101747.84;2581461;23;20613;-70
2022/01/08 04:49:42;;;;;;;13.67;7.63;;;;;;;5.56;60.14;101744.53;2581821;23;20512;-70
2022/01/08 04:50:43;;;;;;;9.77;7.27;;;;;;;5.53;59.54;101744.47;2581241;23;20200;-70
2022/01/08 04:51:43;;;;;;;10.20;7.50;;;;;;;5.51;60.55;101739.34;2582437;23;20153;-70
2022/01/08 04:52:44;;;;;;;14.43;7.83;;;;;;;5.53;60.47;101742.50;2582023;23;20158;-70
2022/01/08 04:53:44;;;;;;;11.63;7.17;;;;;;;5.57;60.51;101737.84;2582385;23;20535;-70
2022/01/08 04:54:44;;;;;;;10.07;7.87;;;;;;;5.66;61.71;101738.38;2581866;23;20205;-70
2022/01/08 04:55:45;;;;;;;8.43;6.97;;;;;;;5.75;61.41;101743.59;2582329;23;20155;-70
2022/01/08 04:56:45;;;;;;;9.73;7.80;;;;;;;5.09;61.34;101655.47;2582048;23;20209;-70
2022/01/08 04:57:46;;;;;;;10.93;8.07;;;;;;;5.51;60.70;101716.53;2582117;23;20182;-70
2022/01/08 04:58:47;;;;;;;10.38;7.93;;;;;;;5.78;61.38;101738.13;2581913;23;20157;-70
2022/01/08 04:59:48;;;;;;;9.33;7.33;;;;;;;5.80;61.28;101752.34;2581541;23;20214;-70
2022/01/08 05:00:48;;;;;;;9.53;7.37;;;;;;;5.79;61.07;101741.69;2581287;23;20161;-70
2022/01/08 05:01:49;;;;;;;10.13;7.70;;;;;;;5.30;61.14;101678.56;2582358;23;20593;-70
2022/01/08 05:02:50;;;;;;;13.43;8.00;;;;;;;5.74;60.69;101726.28;2582360;23;20162;-70
2022/01/08 05:03:50;;;;;;;11.47;7.80;;;;;;;5.66;61.22;101707.31;2582253;23;20178;-70